Time;durP1;ratioP1;P1;durP2;ratioP2;P2;SDS_P1;SDS_P2;PMS_P1;PMS_P2;Temp;Humidity;BMP_temperature;BMP_pressure;BME280_temperature;BME280_humidity;BME280_pressure;Samples;Min_cycle;Max_cycle;Signal;HPM_P1;HPM_P2
2021/03/05 00:01:29;;;;;;;4.67;0.97;;;-0.40;99.90;;;;;;5005747;28;20176;-54
2021/03/05 00:03:54;;;;;;;3.97;0.93;;;-0.40;99.90;;;;;;5002301;28;20649;-54
2021/03/05 00:06:20;;;;;;;2.30;1.10;;;-0.30;99.90;;;;;;5000951;28;20216;-48
2021/03/05 00:08:45;;;;;;;2.60;0.83;;;-0.30;99.90;;;;;;5003325;28;20229;-51
2021/03/05 00:11:11;;;;;;;3.43;0.87;;;-0.40;99.90;;;;;;4983573;28;20203;-51
2021/03/05 00:13:36;;;;;;;2.07;0.90;;;-0.30;99.90;;;;;;4997002;28;20240;-51
2021/03/05 00:16:02;;;;;;;6.73;1.10;;;-0.30;99.90;;;;;;4986639;28;20600;-56
2021/03/05 00:18:28;;;;;;;1.27;0.60;;;-0.40;99.90;;;;;;5000649;28;20620;-50
2021/03/05 00:20:54;;;;;;;2.97;0.87;;;-0.40;99.90;;;;;;5003682;28;20181;-54
2021/03/05 00:23:20;;;;;;;1.80;0.53;;;-0.40;99.90;;;;;;5000601;28;20223;-51
2021/03/05 00:25:48;;;;;;;5.73;0.90;;;-0.40;99.90;;;;;;5004766;28;20208;-53
2021/03/05 00:28:14;;;;;;;4.53;0.90;;;-0.40;99.90;;;;;;4980560;28;20189;-49
2021/03/05 00:30:39;;;;;;;5.00;0.60;;;-0.40;99.90;;;;;;4991360;28;20306;-51
2021/03/05 00:33:06;;;;;;;1.53;0.63;;;-0.40;99.90;;;;;;5002149;28;20222;-52
2021/03/05 00:35:31;;;;;;;4.23;1.30;;;-0.40;99.90;;;;;;5005905;28;20247;-52
2021/03/05 00:37:57;;;;;;;3.67;1.00;;;-0.40;99.90;;;;;;5002691;28;20656;-49
2021/03/05 00:40:24;;;;;;;1.57;0.50;;;-0.40;99.90;;;;;;5004150;28;20389;-52
2021/03/05 00:42:50;;;;;;;4.83;1.10;;;-0.40;99.90;;;;;;4984659;28;20204;-52
2021/03/05 00:45:19;;;;;;;3.00;1.00;;;-0.40;99.90;;;;;;4989289;28;20488;-51
2021/03/05 00:47:46;;;;;;;4.63;0.90;;;-0.40;99.90;;;;;;4997945;28;20732;-53
2021/03/05 00:50:14;;;;;;;1.33;0.63;;;-0.50;99.90;;;;;;5000654;28;20259;-53
2021/03/05 00:52:40;;;;;;;2.87;0.80;;;-0.50;99.90;;;;;;5004630;28;20264;-50
2021/03/05 00:55:11;;;;;;;3.70;0.97;;;-0.50;99.90;;;;;;4993847;28;20288;-51
2021/03/05 00:57:38;;;;;;;7.40;1.20;;;-0.50;99.90;;;;;;4996987;28;20186;-50
2021/03/05 01:00:07;;;;;;;3.57;1.00;;;-0.50;99.90;;;;;;4986928;28;20185;-53
2021/03/05 01:02:34;;;;;;;4.43;0.97;;;-0.50;99.90;;;;;;4977685;28;20178;-53
2021/03/05 01:05:00;;;;;;;6.13;1.10;;;-0.50;99.90;;;;;;5017996;28;20583;-52
2021/03/05 01:07:25;;;;;;;5.30;1.13;;;-0.50;99.90;;;;;;5016729;28;20196;-53
2021/03/05 01:09:52;;;;;;;1.90;0.80;;;-0.50;99.90;;;;;;5001170;28;20868;-50
2021/03/05 01:12:19;;;;;;;7.87;1.33;;;-0.50;99.90;;;;;;4983041;28;20181;-53
2021/03/05 01:14:44;;;;;;;2.60;0.80;;;-0.50;99.90;;;;;;4990660;28;20259;-49
2021/03/05 01:17:10;;;;;;;3.03;1.03;;;-0.50;99.90;;;;;;4997949;28;20193;-50
2021/03/05 01:19:36;;;;;;;5.87;1.33;;;-0.50;99.90;;;;;;4985313;28;20188;-49
2021/03/05 01:22:02;;;;;;;2.50;0.90;;;-0.60;99.90;;;;;;4985992;28;20185;-49
2021/03/05 01:24:27;;;;;;;4.70;0.93;;;-0.50;99.90;;;;;;5000956;28;20184;-55
2021/03/05 01:26:53;;;;;;;5.03;0.83;;;-0.50;99.90;;;;;;5001638;28;20251;-51
2021/03/05 01:29:18;;;;;;;2.13;1.17;;;-0.50;99.90;;;;;;4983586;28;20186;-55
2021/03/05 01:31:44;;;;;;;3.30;1.20;;;-0.60;99.90;;;;;;4993916;28;20959;-52
2021/03/05 01:34:09;;;;;;;0.73;0.70;;;-0.50;99.90;;;;;;5003412;28;20539;-50
2021/03/05 01:36:36;;;;;;;3.50;1.00;;;-0.60;99.90;;;;;;5002667;28;20302;-56
2021/03/05 01:39:02;;;;;;;3.40;0.93;;;-0.60;99.90;;;;;;5006444;28;20184;-53
2021/03/05 01:41:28;;;;;;;2.50;1.10;;;-0.60;99.90;;;;;;5004436;28;20258;-54
2021/03/05 01:43:53;;;;;;;4.83;1.37;;;-0.60;99.90;;;;;;4990851;28;20201;-54
2021/03/05 01:46:21;;;;;;;6.43;1.30;;;-0.60;99.90;;;;;;5005919;28;20232;-56
2021/03/05 01:48:47;;;;;;;3.77;0.90;;;-0.60;99.90;;;;;;4995259;28;20184;-53
2021/03/05 01:51:18;;;;;;;8.47;1.00;;;-0.60;99.90;;;;;;4987104;28;20192;-51
2021/03/05 01:53:45;;;;;;;5.37;1.20;;;-0.60;99.90;;;;;;4988703;28;20188;-52
2021/03/05 01:56:39;;;;;;;2.23;1.10;;;-0.60;99.90;;;;;;5006734;28;20201;-50
2021/03/05 01:59:07;;;;;;;9.77;1.57;;;-0.60;99.90;;;;;;5005731;28;20239;-53
2021/03/05 02:01:34;;;;;;;1.53;0.83;;;-0.60;99.90;;;;;;4994859;28;20192;-57
2021/03/05 02:04:00;;;;;;;8.10;1.30;;;-0.60;99.90;;;;;;4999388;28;20189;-49
2021/03/05 02:06:26;;;;;;;5.07;1.40;;;-0.60;99.90;;;;;;5004659;28;20216;-51
2021/03/05 02:08:52;;;;;;;4.40;0.90;;;-0.60;99.90;;;;;;5004242;28;20271;-54
2021/03/05 02:11:22;;;;;;;3.60;1.10;;;-0.60;99.90;;;;;;4994608;28;20197;-50
2021/03/05 02:13:48;;;;;;;4.10;1.20;;;-0.70;99.90;;;;;;4985393;28;20299;-52
2021/03/05 02:16:22;;;;;;;3.80;0.90;;;-0.70;99.90;;;;;;4983569;28;20681;-55
2021/03/05 02:19:22;;;;;;;1.13;0.87;;;-0.70;99.90;;;;;;4995730;28;20181;-52
2021/03/05 02:22:21;;;;;;;3.60;0.90;;;-0.70;99.90;;;;;;4991937;28;20294;-52
2021/03/05 02:25:12;;;;;;;4.73;0.73;;;-0.70;99.90;;;;;;5003321;28;20200;-53
2021/03/05 02:28:15;;;;;;;4.03;0.97;;;-0.70;99.90;;;;;;5001170;28;20204;-49
2021/03/05 02:31:14;;;;;;;5.03;1.13;;;-0.70;99.90;;;;;;4987218;28;20179;-52
2021/03/05 02:33:50;;;;;;;1.50;0.80;;;-0.70;99.90;;;;;;4996820;28;20188;-48
2021/03/05 02:36:39;;;;;;;2.93;0.70;;;-0.80;99.90;;;;;;4998588;28;20291;-48
2021/03/05 02:39:10;;;;;;;1.13;0.80;;;-0.80;99.90;;;;;;5005630;28;20184;-49
2021/03/05 02:41:40;;;;;;;4.20;1.47;;;-0.80;99.90;;;;;;5001891;28;20653;-51
2021/03/05 02:44:08;;;;;;;1.93;0.93;;;-0.80;99.90;;;;;;5000876;28;20200;-54
2021/03/05 02:46:37;;;;;;;2.57;0.60;;;-0.80;99.90;;;;;;4981819;28;20224;-50
2021/03/05 02:49:05;;;;;;;3.77;0.73;;;-0.80;99.90;;;;;;4998121;28;20692;-55
2021/03/05 02:51:34;;;;;;;2.03;0.73;;;-0.80;99.90;;;;;;5004254;28;20169;-51
2021/03/05 02:54:01;;;;;;;3.27;0.67;;;-0.80;99.90;;;;;;5005107;28;20185;-54
2021/03/05 02:56:31;;;;;;;1.80;0.87;;;-0.80;99.90;;;;;;5000899;28;20211;-54
2021/03/05 02:58:58;;;;;;;2.97;0.90;;;-0.80;99.90;;;;;;5005577;28;20180;-53
2021/03/05 03:01:25;;;;;;;2.63;0.67;;;-0.90;99.90;;;;;;4988612;28;20197;-51
2021/03/05 03:03:54;;;;;;;8.83;1.40;;;-0.90;99.90;;;;;;5005284;28;20187;-51
2021/03/05 03:06:21;;;;;;;4.87;1.13;;;-0.90;99.90;;;;;;5001404;28;20231;-52
2021/03/05 03:08:48;;;;;;;3.00;0.83;;;-0.90;99.90;;;;;;5004053;28;20185;-53
2021/03/05 03:11:14;;;;;;;2.13;0.80;;;-0.90;99.90;;;;;;4987379;28;20243;-53
2021/03/05 03:13:40;;;;;;;2.10;1.10;;;-0.90;99.90;;;;;;5005991;28;20181;-52
2021/03/05 03:16:07;;;;;;;4.57;0.80;;;-0.90;99.90;;;;;;5002633;28;20201;-57
2021/03/05 03:18:35;;;;;;;4.47;1.17;;;-0.90;99.90;;;;;;4981327;28;20334;-53
2021/03/05 03:21:02;;;;;;;5.33;1.07;;;-0.90;99.90;;;;;;4991853;28;20280;-56
2021/03/05 03:23:28;;;;;;;9.63;1.27;;;-1.00;99.90;;;;;;4999878;28;20203;-53
2021/03/05 03:25:53;;;;;;;2.07;0.70;;;-1.00;99.90;;;;;;5004932;28;20212;-54
2021/03/05 03:28:19;;;;;;;3.93;0.90;;;-1.00;99.90;;;;;;4999032;28;20169;-50
2021/03/05 03:30:46;;;;;;;4.17;0.67;;;-1.00;99.90;;;;;;5003528;28;20180;-53
2021/03/05 03:33:12;;;;;;;2.17;0.67;;;-1.00;99.90;;;;;;4986732;28;20653;-53
2021/03/05 03:35:39;;;;;;;5.83;1.00;;;-1.00;99.90;;;;;;4996860;28;20205;-53
2021/03/05 03:38:07;;;;;;;2.73;0.90;;;-1.10;99.90;;;;;;5004197;28;20216;-53
2021/03/05 03:40:34;;;;;;;5.27;1.10;;;-1.10;99.90;;;;;;4999122;28;20223;-49
2021/03/05 03:43:00;;;;;;;1.63;1.20;;;-1.10;99.90;;;;;;4986634;28;20216;-53
2021/03/05 03:45:26;;;;;;;2.23;1.27;;;-1.10;99.90;;;;;;4992395;28;20232;-49
2021/03/05 03:47:55;;;;;;;4.30;0.90;;;-1.10;99.90;;;;;;4990711;28;20212;-47
2021/03/05 03:50:29;;;;;;;2.33;0.93;;;-1.20;99.90;;;;;;4999929;28;20176;-47
2021/03/05 03:52:57;;;;;;;3.03;1.03;;;-1.20;99.90;;;;;;5001673;28;20592;-51
2021/03/05 03:55:24;;;;;;;3.93;1.00;;;-1.20;99.90;;;;;;5001577;28;20994;-51
2021/03/05 03:57:52;;;;;;;7.10;0.97;;;-1.20;99.90;;;;;;5005050;28;20188;-50
2021/03/05 04:00:18;;;;;;;6.33;1.30;;;-1.20;99.90;;;;;;4998507;28;20208;-48
2021/03/05 04:02:50;;;;;;;3.03;0.87;;;-1.30;99.90;;;;;;5006365;28;20195;-49
2021/03/05 04:05:22;;;;;;;5.83;1.00;;;-1.30;99.90;;;;;;4983963;28;20221;-51
2021/03/05 04:07:50;;;;;;;4.77;1.90;;;-1.30;99.90;;;;;;4998710;28;20251;-47
2021/03/05 04:10:16;;;;;;;1.03;0.93;;;-1.30;99.90;;;;;;4994403;28;20633;-49
2021/03/05 04:12:43;;;;;;;5.10;1.10;;;-1.30;99.90;;;;;;4984568;28;20173;-50
2021/03/05 04:15:10;;;;;;;2.23;1.10;;;-1.30;99.90;;;;;;4994001;28;20212;-55
2021/03/05 04:17:35;;;;;;;4.57;0.97;;;-1.30;99.90;;;;;;5002306;28;20547;-52
2021/03/05 04:20:03;;;;;;;2.97;1.47;;;-1.40;99.90;;;;;;4988478;28;20193;-51
2021/03/05 04:22:29;;;;;;;2.17;1.10;;;-1.40;99.90;;;;;;4998518;28;20213;-48
2021/03/05 04:24:54;;;;;;;6.17;1.30;;;-1.40;99.90;;;;;;5003556;28;20205;-48
2021/03/05 04:27:20;;;;;;;5.37;1.60;;;-1.40;99.90;;;;;;4993800;28;20208;-47
2021/03/05 04:29:46;;;;;;;2.13;1.07;;;-1.40;99.90;;;;;;5003379;28;20231;-50
2021/03/05 04:32:11;;;;;;;1.33;1.10;;;-1.40;99.90;;;;;;4995480;28;20181;-53
2021/03/05 04:34:37;;;;;;;1.70;0.90;;;-1.40;99.90;;;;;;4988091;28;20227;-46
2021/03/05 04:37:02;;;;;;;1.67;1.00;;;-1.50;99.90;;;;;;4993264;28;20551;-51
2021/03/05 04:39:28;;;;;;;6.23;1.33;;;-1.50;99.90;;;;;;5002267;28;20481;-52
2021/03/05 04:41:53;;;;;;;4.23;1.63;;;-1.50;99.90;;;;;;4988473;28;20335;-49
2021/03/05 04:44:19;;;;;;;6.20;1.40;;;-1.50;99.90;;;;;;4989754;28;20812;-50
2021/03/05 04:46:45;;;;;;;6.27;1.20;;;-1.50;99.90;;;;;;5004984;28;20244;-48
2021/03/05 04:49:11;;;;;;;3.77;1.33;;;-1.50;99.90;;;;;;4984496;28;20690;-52
2021/03/05 04:51:36;;;;;;;4.73;1.20;;;-1.50;99.90;;;;;;4995534;28;20240;-54
2021/03/05 04:54:02;;;;;;;3.60;1.30;;;-1.50;99.90;;;;;;5000702;28;20666;-51
2021/03/05 04:56:28;;;;;;;3.43;1.27;;;-1.50;99.90;;;;;;5001432;28;20199;-49
2021/03/05 04:58:54;;;;;;;4.70;1.20;;;-1.60;99.90;;;;;;5004124;28;20577;-54
2021/03/05 05:01:19;;;;;;;2.37;1.40;;;-1.50;99.90;;;;;;5000681;28;21271;-52
2021/03/05 05:03:45;;;;;;;2.67;1.27;;;-1.60;99.90;;;;;;5000728;28;20176;-51
2021/03/05 05:06:12;;;;;;;6.27;1.40;;;-1.60;99.90;;;;;;4984465;28;20227;-53
2021/03/05 05:08:37;;;;;;;1.57;1.40;;;-1.60;99.90;;;;;;5000169;28;20193;-50
2021/03/05 05:11:03;;;;;;;2.13;1.00;;;-1.60;99.90;;;;;;4999896;28;20193;-53
2021/03/05 05:13:28;;;;;;;4.00;1.30;;;-1.60;99.90;;;;;;5004733;28;20181;-47
2021/03/05 05:15:54;;;;;;;2.07;1.20;;;-1.60;99.90;;;;;;5006830;28;20200;-54
2021/03/05 05:18:20;;;;;;;4.00;1.30;;;-1.60;99.90;;;;;;5003869;28;20177;-52
2021/03/05 05:20:46;;;;;;;3.03;0.90;;;-1.60;99.90;;;;;;4988594;28;20279;-50
2021/03/05 05:23:11;;;;;;;3.03;1.40;;;-1.60;99.90;;;;;;4993317;28;20196;-53
2021/03/05 05:25:37;;;;;;;6.57;2.17;;;-1.60;99.90;;;;;;4987770;28;20292;-50
2021/03/05 05:28:03;;;;;;;3.87;1.20;;;-1.70;99.90;;;;;;4985557;28;20193;-56
2021/03/05 05:30:28;;;;;;;3.23;1.10;;;-1.70;99.90;;;;;;5001891;28;20259;-48
2021/03/05 05:32:54;;;;;;;3.60;1.33;;;-1.70;99.90;;;;;;5006880;28;20173;-54
2021/03/05 05:35:20;;;;;;;2.90;1.07;;;-1.70;99.90;;;;;;4997575;28;20935;-50
2021/03/05 05:37:45;;;;;;;2.93;1.67;;;-1.70;99.90;;;;;;4988171;28;20558;-51
2021/03/05 05:40:11;;;;;;;2.87;1.37;;;-1.70;99.90;;;;;;4999498;28;20657;-50
2021/03/05 05:42:37;;;;;;;3.70;1.33;;;-1.70;99.90;;;;;;4995608;28;20275;-49
2021/03/05 05:45:04;;;;;;;2.30;1.23;;;-1.70;99.90;;;;;;5004240;28;20319;-53
2021/03/05 05:47:33;;;;;;;3.13;1.33;;;-1.80;99.90;;;;;;5004908;28;20211;-50
2021/03/05 05:50:03;;;;;;;5.57;1.40;;;-1.80;99.90;;;;;;5005197;28;20657;-54
2021/03/05 05:52:30;;;;;;;4.93;1.80;;;-1.80;99.90;;;;;;4987203;28;21977;-48
2021/03/05 05:54:56;;;;;;;2.23;1.43;;;-1.80;99.90;;;;;;5004255;28;20687;-50
2021/03/05 05:57:23;;;;;;;1.97;1.17;;;-1.80;99.90;;;;;;4983378;28;20177;-51
2021/03/05 05:59:49;;;;;;;3.43;1.57;;;-1.80;99.90;;;;;;4978078;28;20228;-50
2021/03/05 06:02:16;;;;;;;6.47;1.97;;;-1.80;99.90;;;;;;5002810;28;20217;-52
2021/03/05 06:04:42;;;;;;;4.10;1.80;;;-1.80;99.90;;;;;;4995465;28;20208;-54
2021/03/05 06:07:07;;;;;;;3.90;1.60;;;-1.80;99.90;;;;;;4998735;28;20727;-48
2021/03/05 06:09:33;;;;;;;1.83;1.43;;;-1.80;99.90;;;;;;4982534;28;20216;-54
2021/03/05 06:11:59;;;;;;;7.07;1.80;;;-1.80;99.90;;;;;;4998719;28;20211;-50
2021/03/05 06:14:25;;;;;;;1.60;1.47;;;-1.80;99.90;;;;;;5002143;28;20207;-50
2021/03/05 06:16:51;;;;;;;2.97;1.80;;;-1.80;99.90;;;;;;5001422;28;20932;-53
2021/03/05 06:19:18;;;;;;;4.57;1.70;;;-1.80;99.90;;;;;;5000803;28;20199;-50
2021/03/05 06:21:44;;;;;;;3.97;1.63;;;-1.80;99.90;;;;;;4997181;28;20193;-54
2021/03/05 06:24:10;;;;;;;3.97;2.33;;;-1.80;99.90;;;;;;4991606;28;20563;-47
2021/03/05 06:26:49;;;;;;;4.00;1.80;;;-1.80;99.90;;;;;;4998738;28;20217;-55
2021/03/05 06:29:16;;;;;;;4.87;1.73;;;-1.80;99.90;;;;;;4988814;28;20181;-53
2021/03/05 06:31:51;;;;;;;5.20;1.90;;;-1.80;99.90;;;;;;4985390;28;20177;-54
2021/03/05 06:34:17;;;;;;;3.90;1.90;;;-1.70;99.90;;;;;;4987194;28;20185;-47
2021/03/05 06:36:42;;;;;;;5.93;1.67;;;-1.70;99.90;;;;;;4993139;28;20211;-52
2021/03/05 06:39:08;;;;;;;4.27;2.10;;;-1.70;99.90;;;;;;4988797;28;20188;-49
2021/03/05 06:41:35;;;;;;;4.47;1.60;;;-1.70;99.90;;;;;;5004444;28;20192;-52
2021/03/05 06:44:05;;;;;;;5.50;2.10;;;-1.60;99.90;;;;;;4959572;28;20699;-51
2021/03/05 06:46:41;;;;;;;5.43;2.00;;;-1.60;99.90;;;;;;5001202;28;20332;-50
2021/03/05 06:49:10;;;;;;;3.80;2.00;;;-1.60;99.90;;;;;;4994790;28;20268;-51
2021/03/05 06:51:36;;;;;;;4.27;2.10;;;-1.60;99.90;;;;;;5001238;28;20198;-52
2021/03/05 06:54:15;;;;;;;3.83;1.77;;;-1.60;99.90;;;;;;4989858;28;20200;-52
2021/03/05 06:56:42;;;;;;;5.43;2.30;;;-1.50;99.90;;;;;;5002654;28;20260;-55
2021/03/05 06:59:13;;;;;;;7.13;2.33;;;-1.50;99.90;;;;;;4991628;28;20177;-55
2021/03/05 07:01:55;;;;;;;3.00;1.90;;;-1.40;99.90;;;;;;5001051;28;20199;-52
2021/03/05 07:04:50;;;;;;;3.97;1.87;;;-1.40;99.90;;;;;;4997318;28;20195;-49
2021/03/05 07:07:17;;;;;;;3.87;1.90;;;-1.40;99.90;;;;;;4985887;28;20225;-53
2021/03/05 07:09:46;;;;;;;5.40;2.20;;;-1.30;99.90;;;;;;4979262;28;20213;-51
2021/03/05 07:12:17;;;;;;;2.90;1.70;;;-1.30;99.90;;;;;;4986588;28;20182;-55
2021/03/05 07:14:48;;;;;;;6.57;2.23;;;-1.20;99.90;;;;;;4993974;28;20220;-51
2021/03/05 07:17:15;;;;;;;3.23;2.10;;;-1.10;99.90;;;;;;5001943;28;20950;-50
2021/03/05 07:19:41;;;;;;;5.00;2.00;;;-1.10;99.90;;;;;;4990395;28;20208;-53
2021/03/05 07:22:08;;;;;;;3.47;1.83;;;-1.10;99.90;;;;;;4991308;28;20660;-55
2021/03/05 07:24:40;;;;;;;4.20;1.77;;;-1.00;99.90;;;;;;4999204;28;20311;-50
2021/03/05 07:27:07;;;;;;;3.93;2.00;;;-0.90;99.90;;;;;;4973408;28;20705;-52
2021/03/05 07:29:44;;;;;;;4.60;2.37;;;-0.90;99.90;;;;;;4999432;28;20216;-52
2021/03/05 07:32:14;;;;;;;3.13;2.07;;;-0.80;99.90;;;;;;4987712;28;20187;-55
2021/03/05 07:34:59;;;;;;;4.40;2.17;;;-0.70;99.90;;;;;;5003776;28;20232;-53
2021/03/05 07:37:35;;;;;;;6.63;1.60;;;-0.60;99.90;;;;;;4988368;28;20181;-51
2021/03/05 07:40:11;;;;;;;6.80;2.17;;;-0.50;99.90;;;;;;4990676;28;20177;-55
2021/03/05 07:42:38;;;;;;;6.37;2.27;;;-0.40;99.90;;;;;;4982631;28;20197;-51
2021/03/05 07:45:05;;;;;;;3.70;1.70;;;-0.40;99.90;;;;;;4991049;28;20320;-55
2021/03/05 07:47:34;;;;;;;2.57;1.90;;;-0.30;99.90;;;;;;4996227;28;20298;-52
2021/03/05 07:50:01;;;;;;;3.10;1.80;;;-0.20;99.90;;;;;;4988398;28;20208;-55
2021/03/05 07:52:27;;;;;;;3.53;1.63;;;-0.10;99.90;;;;;;4994753;28;20196;-55
2021/03/05 07:54:53;;;;;;;4.80;2.23;;;0.10;99.90;;;;;;4985113;28;20269;-49
2021/03/05 07:57:18;;;;;;;5.13;1.60;;;0.20;99.90;;;;;;4977734;28;20189;-52
2021/03/05 07:59:44;;;;;;;4.20;2.13;;;0.30;99.90;;;;;;4996651;28;20275;-52
2021/03/05 08:02:11;;;;;;;3.80;1.77;;;0.40;99.90;;;;;;5001329;28;20177;-47
2021/03/05 08:05:13;;;;;;;2.27;1.77;;;0.50;99.90;;;;;;4992030;28;20762;-57
2021/03/05 08:07:38;;;;;;;2.17;1.83;;;0.60;99.90;;;;;;4998357;28;20220;-54
2021/03/05 08:10:05;;;;;;;2.27;1.43;;;0.80;99.90;;;;;;4980973;28;20192;-57
2021/03/05 08:12:40;;;;;;;5.43;1.93;;;0.90;99.90;;;;;;4983162;28;20201;-54
2021/03/05 08:15:09;;;;;;;3.33;1.40;;;0.90;99.90;;;;;;5000950;28;20298;-55
2021/03/05 08:17:39;;;;;;;7.10;1.53;;;1.00;99.90;;;;;;4993464;28;20188;-56
2021/03/05 08:20:28;;;;;;;9.10;1.77;;;1.00;99.90;;;;;;4997986;28;20220;-50
2021/03/05 08:22:56;;;;;;;3.23;1.23;;;1.10;99.90;;;;;;5003375;28;20193;-51
2021/03/05 08:25:30;;;;;;;1.17;1.07;;;1.20;99.90;;;;;;4993793;28;20221;-53
2021/03/05 08:27:57;;;;;;;5.60;1.33;;;1.30;99.90;;;;;;4982527;28;20214;-52
2021/03/05 08:30:40;;;;;;;7.33;1.20;;;1.40;99.90;;;;;;5002643;28;20542;-50
2021/03/05 08:33:26;;;;;;;5.33;1.47;;;1.50;99.90;;;;;;4991752;28;20178;-51
2021/03/05 08:35:52;;;;;;;4.83;1.00;;;1.60;99.90;;;;;;4987655;28;20229;-52
2021/03/05 08:38:31;;;;;;;1.23;1.03;;;1.70;99.90;;;;;;5005279;28;20229;-51
2021/03/05 08:41:03;;;;;;;1.97;1.03;;;1.70;99.90;;;;;;4993073;28;20185;-49
2021/03/05 08:43:31;;;;;;;3.57;1.27;;;1.80;99.90;;;;;;4983516;28;20686;-54
2021/03/05 08:46:01;;;;;;;2.10;1.10;;;1.90;99.90;;;;;;4991827;28;20366;-49
2021/03/05 08:48:48;;;;;;;2.10;1.23;;;2.00;99.90;;;;;;4983089;28;20695;-52
2021/03/05 08:51:21;;;;;;;1.70;1.13;;;2.10;99.90;;;;;;4985446;28;20206;-52
2021/03/05 08:53:53;;;;;;;2.73;1.23;;;2.20;99.90;;;;;;4999421;28;20869;-53
2021/03/05 08:56:27;;;;;;;2.20;1.27;;;2.30;99.90;;;;;;4994789;28;20232;-53
2021/03/05 08:59:06;;;;;;;1.17;0.70;;;2.40;99.90;;;;;;4980596;28;20191;-52
2021/03/05 09:01:40;;;;;;;1.07;0.80;;;2.40;99.90;;;;;;4982142;28;20544;-55
2021/03/05 09:04:12;;;;;;;4.97;0.97;;;2.50;99.90;;;;;;4983393;28;20687;-52
2021/03/05 09:06:50;;;;;;;2.03;0.70;;;2.60;99.90;;;;;;4985620;28;20218;-55
2021/03/05 09:09:16;;;;;;;4.97;0.60;;;2.70;99.90;;;;;;5003408;28;20269;-53
2021/03/05 09:11:42;;;;;;;5.17;0.60;;;2.80;99.90;;;;;;4991574;28;20196;-55
2021/03/05 09:14:21;;;;;;;3.10;0.77;;;2.80;99.90;;;;;;4985965;28;20245;-52
2021/03/05 09:17:00;;;;;;;1.40;0.70;;;2.90;99.90;;;;;;4992465;28;20189;-56
2021/03/05 09:19:34;;;;;;;1.03;0.60;;;3.00;99.90;;;;;;4983485;28;20260;-55
2021/03/05 09:22:17;;;;;;;2.07;0.63;;;3.00;99.90;;;;;;4985719;28;21015;-53
2021/03/05 09:24:46;;;;;;;0.90;0.60;;;3.10;99.90;;;;;;5000692;28;20892;-53
2021/03/05 09:27:19;;;;;;;4.37;0.60;;;3.20;99.90;;;;;;4998461;28;20571;-55
2021/03/05 09:29:45;;;;;;;1.50;0.70;;;3.30;99.90;;;;;;4974708;28;20333;-53
2021/03/05 09:32:11;;;;;;;0.80;0.70;;;3.50;99.90;;;;;;5002866;28;20255;-51
2021/03/05 09:34:57;;;;;;;2.20;0.90;;;3.60;99.90;;;;;;4997130;28;20227;-53
2021/03/05 09:37:25;;;;;;;1.63;0.70;;;3.70;99.90;;;;;;4986821;28;20216;-52
2021/03/05 09:39:52;;;;;;;2.57;0.47;;;3.70;99.90;;;;;;4992118;28;20800;-53
2021/03/05 09:42:38;;;;;;;1.10;0.63;;;3.70;99.90;;;;;;4997989;28;20180;-55
2021/03/05 09:45:04;;;;;;;1.27;0.50;;;3.70;99.90;;;;;;4996153;28;20231;-53
2021/03/05 09:47:48;;;;;;;1.90;0.70;;;3.60;99.90;;;;;;4985574;28;20207;-54
2021/03/05 09:50:21;;;;;;;6.43;0.97;;;3.70;99.90;;;;;;4988042;28;20196;-52
2021/03/05 09:52:47;;;;;;;0.90;0.47;;;3.70;97.60;;;;;;4988757;28;20838;-54
2021/03/05 09:55:30;;;;;;;5.73;0.63;;;3.80;99.80;;;;;;4987930;28;20212;-54
2021/03/05 09:58:09;;;;;;;1.30;0.50;;;3.90;95.80;;;;;;4984929;28;20187;-50
2021/03/05 10:00:35;;;;;;;1.70;1.00;;;3.90;99.60;;;;;;4985335;28;20665;-51
2021/03/05 10:03:11;;;;;;;3.83;0.60;;;3.90;99.70;;;;;;4989014;28;20279;-55
2021/03/05 10:05:40;;;;;;;5.77;0.90;;;3.90;98.50;;;;;;4990079;28;20247;-54
2021/03/05 10:08:16;;;;;;;1.97;0.53;;;3.90;98.90;;;;;;4997543;28;20220;-50
2021/03/05 10:11:14;;;;;;;2.57;0.67;;;3.90;96.40;;;;;;4992408;28;20189;-54
2021/03/05 10:13:52;;;;;;;0.77;0.43;;;4.00;93.40;;;;;;4997055;28;20212;-54
2021/03/05 10:16:34;;;;;;;2.77;0.40;;;4.00;96.80;;;;;;4989226;28;20205;-50
2021/03/05 10:19:11;;;;;;;0.50;0.40;;;4.10;91.00;;;;;;4988034;28;20196;-54
2021/03/05 10:21:42;;;;;;;0.60;0.40;;;4.10;90.00;;;;;;4989827;28;20184;-50
2021/03/05 10:24:25;;;;;;;3.53;0.50;;;4.10;92.70;;;;;;4997483;28;20587;-49
2021/03/05 10:29:40;;;;;;;0.30;0.20;;;4.30;92.10;;;;;;4996903;28;20265;-55
2021/03/05 10:32:22;;;;;;;2.30;0.30;;;4.40;91.50;;;;;;5004471;28;20216;-51
2021/03/05 10:34:52;;;;;;;0.60;0.37;;;4.40;87.70;;;;;;4972477;28;20205;-54
2021/03/05 10:37:19;;;;;;;2.23;0.50;;;4.40;90.80;;;;;;4995988;28;20523;-52
2021/03/05 10:39:47;;;;;;;4.23;0.47;;;4.50;91.10;;;;;;4989572;28;20842;-51
2021/03/05 10:42:14;;;;;;;3.63;0.40;;;4.60;88.60;;;;;;5003184;28;20281;-52
2021/03/05 10:44:41;;;;;;;1.03;0.30;;;4.60;86.90;;;;;;4995591;28;20304;-55
2021/03/05 10:47:12;;;;;;;2.73;0.40;;;4.70;86.40;;;;;;5006617;28;20231;-53
2021/03/05 10:49:39;;;;;;;1.03;0.40;;;4.70;85.20;;;;;;4980463;28;20200;-51
2021/03/05 10:52:06;;;;;;;0.67;0.30;;;4.70;85.20;;;;;;4990731;28;20746;-55
2021/03/05 10:54:31;;;;;;;0.37;0.37;;;4.70;85.00;;;;;;5000245;28;20649;-53
2021/03/05 10:56:57;;;;;;;0.60;0.40;;;4.70;84.10;;;;;;4997365;28;20201;-50
2021/03/05 10:59:23;;;;;;;1.30;0.57;;;4.80;84.60;;;;;;5003118;28;20181;-53
2021/03/05 11:01:54;;;;;;;0.50;0.33;;;4.90;84.60;;;;;;4998876;28;20269;-49
2021/03/05 11:04:21;;;;;;;1.87;0.60;;;4.90;84.80;;;;;;5007205;28;20312;-50
2021/03/05 11:06:47;;;;;;;2.33;0.53;;;5.00;87.60;;;;;;4975040;28;20296;-48
2021/03/05 11:09:13;;;;;;;0.80;0.50;;;5.10;89.40;;;;;;5005485;28;20188;-52
2021/03/05 11:11:40;;;;;;;1.93;0.70;;;5.20;89.80;;;;;;4995932;28;20219;-53
2021/03/05 11:14:06;;;;;;;2.73;0.70;;;5.20;87.20;;;;;;5004558;28;20280;-50
2021/03/05 11:16:31;;;;;;;1.40;0.50;;;5.20;88.50;;;;;;4990859;28;20712;-52
2021/03/05 11:18:57;;;;;;;1.40;0.60;;;5.30;86.60;;;;;;5001752;28;20902;-48
2021/03/05 11:21:23;;;;;;;0.50;0.40;;;5.30;86.60;;;;;;4991236;28;20254;-54
2021/03/05 11:23:49;;;;;;;2.43;0.70;;;5.30;87.50;;;;;;4992808;28;20165;-50
2021/03/05 11:26:16;;;;;;;1.47;0.70;;;5.30;85.40;;;;;;5004439;28;20680;-49
2021/03/05 11:28:42;;;;;;;1.47;0.57;;;5.30;84.20;;;;;;4990958;28;20783;-51
2021/03/05 11:31:08;;;;;;;0.70;0.67;;;5.30;82.60;;;;;;4996792;28;20176;-53
2021/03/05 11:33:34;;;;;;;1.57;0.60;;;5.30;81.50;;;;;;4998052;28;20668;-54
2021/03/05 11:35:59;;;;;;;1.03;0.53;;;5.30;81.70;;;;;;5002780;28;20196;-48
2021/03/05 11:38:25;;;;;;;0.97;0.30;;;5.30;82.40;;;;;;4985211;28;20212;-52
2021/03/05 11:40:50;;;;;;;0.60;0.43;;;5.40;81.50;;;;;;5000142;28;20184;-49
2021/03/05 11:43:16;;;;;;;2.57;0.90;;;5.30;82.10;;;;;;4999668;28;20697;-49
2021/03/05 11:45:41;;;;;;;2.03;0.67;;;5.40;82.00;;;;;;4991713;28;20573;-50
2021/03/05 11:48:08;;;;;;;0.70;0.67;;;5.40;83.10;;;;;;4999869;28;20711;-49
2021/03/05 11:50:33;;;;;;;2.10;0.40;;;5.50;84.00;;;;;;4987413;28;20193;-54
2021/03/05 11:52:59;;;;;;;2.73;0.50;;;5.70;82.50;;;;;;4976924;28;20388;-53
2021/03/05 11:55:24;;;;;;;0.70;0.40;;;5.70;81.80;;;;;;4991852;28;20200;-53
2021/03/05 11:57:50;;;;;;;0.97;0.57;;;5.70;79.10;;;;;;4995040;28;20193;-49
2021/03/05 12:00:16;;;;;;;1.57;0.40;;;5.70;77.20;;;;;;4997198;28;20681;-52
2021/03/05 12:02:42;;;;;;;1.20;0.30;;;5.80;74.70;;;;;;4987697;28;20192;-52
2021/03/05 12:05:08;;;;;;;0.40;0.30;;;5.80;72.10;;;;;;4987949;28;20685;-48
2021/03/05 12:07:33;;;;;;;1.17;0.40;;;5.70;72.80;;;;;;4978234;28;20566;-52
2021/03/05 12:09:59;;;;;;;1.00;0.50;;;5.70;71.50;;;;;;5002010;28;20177;-51
2021/03/05 12:12:25;;;;;;;0.63;0.40;;;5.80;71.50;;;;;;4993403;28;20184;-51
2021/03/05 12:14:51;;;;;;;0.77;0.50;;;5.90;69.60;;;;;;4989103;28;20205;-54
2021/03/05 12:17:16;;;;;;;0.50;0.37;;;5.90;70.30;;;;;;4999729;28;20185;-53
2021/03/05 12:19:42;;;;;;;3.27;0.80;;;6.00;68.70;;;;;;4985031;28;20185;-53
2021/03/05 12:22:08;;;;;;;2.20;0.70;;;6.00;66.90;;;;;;4985837;28;20185;-50
2021/03/05 12:24:34;;;;;;;3.97;0.63;;;6.00;67.50;;;;;;4985827;28;20702;-51
2021/03/05 12:27:00;;;;;;;1.40;0.57;;;6.00;69.10;;;;;;4983787;28;20267;-49
2021/03/05 12:29:25;;;;;;;1.10;0.60;;;6.00;70.50;;;;;;4983300;28;20629;-52
2021/03/05 12:31:51;;;;;;;2.23;0.53;;;6.10;68.50;;;;;;4995130;28;20187;-51
2021/03/05 12:34:17;;;;;;;1.00;0.53;;;6.10;69.60;;;;;;4999381;28;20242;-51
2021/03/05 12:36:42;;;;;;;1.10;0.63;;;6.20;71.10;;;;;;4995538;28;20260;-54
2021/03/05 12:39:08;;;;;;;1.40;0.70;;;6.20;70.50;;;;;;4991626;28;20199;-48
2021/03/05 12:41:34;;;;;;;2.23;0.37;;;6.30;70.40;;;;;;5003768;28;20188;-53
2021/03/05 12:43:59;;;;;;;1.83;0.50;;;6.30;69.90;;;;;;5004853;28;20177;-50
2021/03/05 12:46:26;;;;;;;1.10;0.60;;;6.30;64.90;;;;;;4997967;28;20220;-52
2021/03/05 12:48:51;;;;;;;2.67;0.50;;;6.30;63.10;;;;;;4989686;28;20301;-47
2021/03/05 12:51:17;;;;;;;1.20;0.70;;;6.30;59.80;;;;;;4998691;28;20280;-49
2021/03/05 12:53:43;;;;;;;1.67;0.67;;;6.40;58.90;;;;;;4999143;28;20173;-48
2021/03/05 12:56:09;;;;;;;0.53;0.40;;;6.40;58.10;;;;;;4984292;28;20209;-49
2021/03/05 12:58:35;;;;;;;0.60;0.60;;;6.40;58.20;;;;;;4992356;28;21004;-47
2021/03/05 13:01:01;;;;;;;0.50;0.30;;;6.50;57.30;;;;;;4995236;28;20173;-49
2021/03/05 13:03:26;;;;;;;1.10;1.00;;;6.40;56.70;;;;;;4987031;28;20251;-50